Aeroporto :
LOGIN :

Iscrizione | Disclaimer

   EN    FR    IT 

 










Sommario :    VFR   VFR Marginale   IFR   IFR Intensivo   IFR Molto Intensivo
Visibilità : 
Base nubi : 
>= 8 km
>= 3000ft
5 / 8 km
1000 / 3000 ft
1500m / 5 km
500 / 1000 ft
800 / 1500m
200 / 500 ft
< 800m
< 200 ft
Simboli :   Temporali  Nebbia  Neve Forte  Precipitazioni Forti  Vento > 20 kt
SIGMETs :   Varie  Temporali  Ghiacco  Turbolenza  Onda orograficha  Ceneri Vulcaniche






- Altitudine del aeroporto : 1041 ft
- Codice IATA : XMF


LFSM - Montbéliard-Courcelles

ULTIMO METAR :
  • 011600Z AUTO 24010KT 9999 BKN040 OVC048 06/01 Q1028

METARs OBSOLETI :
  • 011530Z AUTO 22010KT 9999 BKN042 OVC049 06/01 Q1028
  • 011500Z AUTO 24010KT 9999 FEW027 OVC044 06/02 Q1028
  • 011430Z AUTO 24012KT 9999 FEW028 BKN039 OVC045 06/02 Q1028
  • 011400Z AUTO 24013KT 9999 FEW026 OVC041 06/02 Q1027
  • 011330Z AUTO 23013KT 9999 SCT021 BKN030 OVC045 06/02 Q1027

TAF N/A



MetMap, La meteo Aeronautica in un colpo d'occhio ! - Copyright ORBIFLY Dicembre 2007 - Disclaimer

ORBIFLY MET'MAP TEAM :

Programmazione e sviluppo : Alexandra Zaïnal
Concezione : Baudouin d'Aumeries
Supporto tecnico e logistico : Manuel Goepfert
Aiuto : Marc-Olivier Méhu
Aiuto per la traduzione : Arnaldo La Scala




FONTI E CREDITI :

   NOAA